sensor_id;sensor_type;location;lat;lon;timestamp;P1;durP1;ratioP1;P2;durP2;ratioP2
14118;SDS011;7138;49.246;9.100;2023-02-19T00:01:39;9.02;;;6.35;;
14118;SDS011;7138;49.246;9.100;2023-02-19T00:04:09;9.50;;;6.70;;
14118;SDS011;7138;49.246;9.100;2023-02-19T00:06:40;8.60;;;6.43;;
14118;SDS011;7138;49.246;9.100;2023-02-19T00:09:08;10.05;;;6.13;;
14118;SDS011;7138;49.246;9.100;2023-02-19T00:11:35;9.35;;;7.03;;
14118;SDS011;7138;49.246;9.100;2023-02-19T00:14:02;8.13;;;6.20;;
14118;SDS011;7138;49.246;9.100;2023-02-19T00:16:29;11.02;;;7.68;;
14118;SDS011;7138;49.246;9.100;2023-02-19T00:18:57;10.75;;;7.97;;
14118;SDS011;7138;49.246;9.100;2023-02-19T00:21:25;11.02;;;8.13;;
14118;SDS011;7138;49.246;9.100;2023-02-19T00:23:54;11.27;;;7.63;;
14118;SDS011;7138;49.246;9.100;2023-02-19T00:28:48;11.60;;;7.82;;
14118;SDS011;7138;49.246;9.100;2023-02-19T00:31:17;10.52;;;7.53;;
14118;SDS011;7138;49.246;9.100;2023-02-19T00:33:46;12.38;;;8.68;;
14118;SDS011;7138;49.246;9.100;2023-02-19T00:36:14;10.32;;;8.05;;
14118;SDS011;7138;49.246;9.100;2023-02-19T00:38:40;11.05;;;8.43;;
14118;SDS011;7138;49.246;9.100;2023-02-19T00:41:10;13.20;;;9.32;;
14118;SDS011;7138;49.246;9.100;2023-02-19T00:43:44;12.90;;;9.32;;
14118;SDS011;7138;49.246;9.100;2023-02-19T00:46:12;13.10;;;9.30;;
14118;SDS011;7138;49.246;9.100;2023-02-19T00:48:38;12.80;;;8.65;;
14118;SDS011;7138;49.246;9.100;2023-02-19T00:51:04;10.93;;;8.23;;
14118;SDS011;7138;49.246;9.100;2023-02-19T00:53:30;13.70;;;8.60;;
14118;SDS011;7138;49.246;9.100;2023-02-19T00:55:55;11.07;;;8.77;;
14118;SDS011;7138;49.246;9.100;2023-02-19T00:58:23;11.75;;;8.55;;
14118;SDS011;7138;49.246;9.100;2023-02-19T01:00:48;12.90;;;9.05;;
14118;SDS011;7138;49.246;9.100;2023-02-19T01:03:14;12.07;;;9.00;;
14118;SDS011;7138;49.246;9.100;2023-02-19T01:05:40;11.68;;;8.95;;
14118;SDS011;7138;49.246;9.100;2023-02-19T01:08:06;12.40;;;9.30;;
14118;SDS011;7138;49.246;9.100;2023-02-19T01:10:32;11.20;;;8.88;;
14118;SDS011;7138;49.246;9.100;2023-02-19T01:12:57;11.00;;;9.00;;
14118;SDS011;7138;49.246;9.100;2023-02-19T01:15:25;11.68;;;8.73;;
14118;SDS011;7138;49.246;9.100;2023-02-19T01:17:51;11.82;;;8.57;;
14118;SDS011;7138;49.246;9.100;2023-02-19T01:20:16;11.02;;;8.43;;
14118;SDS011;7138;49.246;9.100;2023-02-19T01:22:42;10.75;;;8.93;;
14118;SDS011;7138;49.246;9.100;2023-02-19T01:25:08;10.93;;;9.20;;
14118;SDS011;7138;49.246;9.100;2023-02-19T01:27:34;13.25;;;9.07;;
14118;SDS011;7138;49.246;9.100;2023-02-19T01:30:00;11.88;;;9.18;;
14118;SDS011;7138;49.246;9.100;2023-02-19T01:32:27;12.73;;;9.45;;
14118;SDS011;7138;49.246;9.100;2023-02-19T01:34:53;12.82;;;9.98;;
14118;SDS011;7138;49.246;9.100;2023-02-19T01:37:18;10.68;;;9.07;;
14118;SDS011;7138;49.246;9.100;2023-02-19T01:39:44;12.10;;;10.07;;
14118;SDS011;7138;49.246;9.100;2023-02-19T01:42:12;13.02;;;10.05;;
14118;SDS011;7138;49.246;9.100;2023-02-19T01:47:48;11.32;;;9.07;;
14118;SDS011;7138;49.246;9.100;2023-02-19T01:50:35;11.05;;;8.55;;
14118;SDS011;7138;49.246;9.100;2023-02-19T01:53:08;9.38;;;7.75;;
14118;SDS011;7138;49.246;9.100;2023-02-19T01:55:39;8.57;;;6.75;;
14118;SDS011;7138;49.246;9.100;2023-02-19T01:58:06;10.43;;;6.70;;
14118;SDS011;7138;49.246;9.100;2023-02-19T02:00:33;8.20;;;6.28;;
14118;SDS011;7138;49.246;9.100;2023-02-19T02:03:02;8.70;;;5.70;;
14118;SDS011;7138;49.246;9.100;2023-02-19T02:05:35;7.72;;;5.75;;
14118;SDS011;7138;49.246;9.100;2023-02-19T02:08:11;9.00;;;5.53;;
14118;SDS011;7138;49.246;9.100;2023-02-19T02:10:57;7.15;;;5.40;;
14118;SDS011;7138;49.246;9.100;2023-02-19T02:13:24;7.43;;;5.05;;
14118;SDS011;7138;49.246;9.100;2023-02-19T02:15:53;7.20;;;5.45;;
14118;SDS011;7138;49.246;9.100;2023-02-19T02:24:23;6.90;;;4.22;;
14118;SDS011;7138;49.246;9.100;2023-02-19T02:27:26;6.35;;;4.40;;
14118;SDS011;7138;49.246;9.100;2023-02-19T02:33:03;5.10;;;3.42;;
14118;SDS011;7138;49.246;9.100;2023-02-19T02:35:41;6.45;;;3.90;;
14118;SDS011;7138;49.246;9.100;2023-02-19T02:38:13;5.80;;;4.15;;
14118;SDS011;7138;49.246;9.100;2023-02-19T02:40:46;5.55;;;3.63;;
14118;SDS011;7138;49.246;9.100;2023-02-19T02:43:12;5.90;;;3.80;;
14118;SDS011;7138;49.246;9.100;2023-02-19T02:45:40;6.72;;;4.18;;
14118;SDS011;7138;49.246;9.100;2023-02-19T02:48:17;6.22;;;3.90;;
14118;SDS011;7138;49.246;9.100;2023-02-19T02:50:52;5.18;;;3.60;;
14118;SDS011;7138;49.246;9.100;2023-02-19T02:53:24;6.78;;;3.70;;
14118;SDS011;7138;49.246;9.100;2023-02-19T02:56:19;4.93;;;3.33;;
14118;SDS011;7138;49.246;9.100;2023-02-19T02:58:47;5.85;;;3.55;;
14118;SDS011;7138;49.246;9.100;2023-02-19T03:01:17;5.00;;;3.47;;
14118;SDS011;7138;49.246;9.100;2023-02-19T03:04:08;6.55;;;3.22;;
14118;SDS011;7138;49.246;9.100;2023-02-19T03:06:42;5.03;;;3.28;;
14118;SDS011;7138;49.246;9.100;2023-02-19T03:09:12;5.05;;;3.10;;
14118;SDS011;7138;49.246;9.100;2023-02-19T03:11:45;5.55;;;3.15;;
14118;SDS011;7138;49.246;9.100;2023-02-19T03:14:36;5.57;;;2.92;;
14118;SDS011;7138;49.246;9.100;2023-02-19T03:17:28;4.80;;;3.00;;
14118;SDS011;7138;49.246;9.100;2023-02-19T03:20:23;4.53;;;2.75;;
14118;SDS011;7138;49.246;9.100;2023-02-19T03:22:51;5.35;;;2.70;;
14118;SDS011;7138;49.246;9.100;2023-02-19T03:25:21;4.70;;;2.67;;
14118;SDS011;7138;49.246;9.100;2023-02-19T03:28:11;4.32;;;2.40;;
14118;SDS011;7138;49.246;9.100;2023-02-19T03:30:42;3.80;;;2.15;;
14118;SDS011;7138;49.246;9.100;2023-02-19T03:33:16;4.40;;;2.10;;
14118;SDS011;7138;49.246;9.100;2023-02-19T03:35:48;3.78;;;2.10;;
14118;SDS011;7138;49.246;9.100;2023-02-19T03:38:21;3.50;;;2.10;;
14118;SDS011;7138;49.246;9.100;2023-02-19T03:40:59;3.42;;;1.95;;
14118;SDS011;7138;49.246;9.100;2023-02-19T03:43:36;3.85;;;2.13;;
14118;SDS011;7138;49.246;9.100;2023-02-19T03:46:10;4.57;;;2.00;;
14118;SDS011;7138;49.246;9.100;2023-02-19T03:48:43;3.80;;;1.70;;
14118;SDS011;7138;49.246;9.100;2023-02-19T03:51:25;3.70;;;1.60;;
14118;SDS011;7138;49.246;9.100;2023-02-19T03:54:01;2.67;;;1.30;;
14118;SDS011;7138;49.246;9.100;2023-02-19T03:56:42;3.22;;;1.40;;
14118;SDS011;7138;49.246;9.100;2023-02-19T03:59:15;3.33;;;1.55;;
14118;SDS011;7138;49.246;9.100;2023-02-19T04:01:53;3.03;;;1.63;;
14118;SDS011;7138;49.246;9.100;2023-02-19T04:04:24;3.17;;;1.70;;
14118;SDS011;7138;49.246;9.100;2023-02-19T04:06:55;2.80;;;1.23;;
14118;SDS011;7138;49.246;9.100;2023-02-19T04:09:23;3.00;;;1.60;;
14118;SDS011;7138;49.246;9.100;2023-02-19T04:11:55;3.05;;;1.48;;
14118;SDS011;7138;49.246;9.100;2023-02-19T04:14:23;3.15;;;1.80;;
14118;SDS011;7138;49.246;9.100;2023-02-19T04:16:57;3.70;;;1.88;;
14118;SDS011;7138;49.246;9.100;2023-02-19T04:19:29;4.47;;;2.17;;
14118;SDS011;7138;49.246;9.100;2023-02-19T04:22:01;3.85;;;2.20;;
14118;SDS011;7138;49.246;9.100;2023-02-19T04:24:32;5.05;;;3.10;;
14118;SDS011;7138;49.246;9.100;2023-02-19T04:27:02;5.38;;;3.55;;
14118;SDS011;7138;49.246;9.100;2023-02-19T04:29:31;4.68;;;3.60;;
14118;SDS011;7138;49.246;9.100;2023-02-19T04:31:56;5.68;;;4.00;;
14118;SDS011;7138;49.246;9.100;2023-02-19T04:34:22;6.57;;;4.60;;
14118;SDS011;7138;49.246;9.100;2023-02-19T04:36:49;6.55;;;5.07;;
14118;SDS011;7138;49.246;9.100;2023-02-19T04:39:15;6.20;;;5.45;;
14118;SDS011;7138;49.246;9.100;2023-02-19T04:41:41;6.25;;;5.18;;
14118;SDS011;7138;49.246;9.100;2023-02-19T04:44:07;8.82;;;6.82;;
14118;SDS011;7138;49.246;9.100;2023-02-19T04:46:33;7.32;;;5.90;;
14118;SDS011;7138;49.246;9.100;2023-02-19T04:48:59;7.63;;;5.88;;
14118;SDS011;7138;49.246;9.100;2023-02-19T04:51:24;7.68;;;6.55;;
14118;SDS011;7138;49.246;9.100;2023-02-19T04:53:52;9.27;;;6.78;;
14118;SDS011;7138;49.246;9.100;2023-02-19T04:56:19;7.80;;;6.47;;
14118;SDS011;7138;49.246;9.100;2023-02-19T04:58:45;8.25;;;6.45;;
14118;SDS011;7138;49.246;9.100;2023-02-19T05:01:11;7.47;;;6.28;;
14118;SDS011;7138;49.246;9.100;2023-02-19T05:03:38;7.95;;;6.22;;
14118;SDS011;7138;49.246;9.100;2023-02-19T05:06:04;7.25;;;5.88;;
14118;SDS011;7138;49.246;9.100;2023-02-19T05:08:34;8.18;;;6.35;;
14118;SDS011;7138;49.246;9.100;2023-02-19T05:11:02;8.18;;;6.15;;
14118;SDS011;7138;49.246;9.100;2023-02-19T05:13:31;7.90;;;5.80;;
14118;SDS011;7138;49.246;9.100;2023-02-19T05:15:58;7.95;;;5.70;;
14118;SDS011;7138;49.246;9.100;2023-02-19T05:18:27;7.28;;;5.55;;
14118;SDS011;7138;49.246;9.100;2023-02-19T05:20:55;7.78;;;5.43;;
14118;SDS011;7138;49.246;9.100;2023-02-19T05:23:22;6.25;;;4.38;;
14118;SDS011;7138;49.246;9.100;2023-02-19T05:25:49;6.28;;;3.97;;
14118;SDS011;7138;49.246;9.100;2023-02-19T05:28:17;6.28;;;3.75;;
14118;SDS011;7138;49.246;9.100;2023-02-19T05:30:43;5.15;;;3.50;;
14118;SDS011;7138;49.246;9.100;2023-02-19T05:33:10;6.35;;;3.72;;
14118;SDS011;7138;49.246;9.100;2023-02-19T05:35:41;5.55;;;3.63;;
14118;SDS011;7138;49.246;9.100;2023-02-19T05:38:09;5.13;;;3.72;;
14118;SDS011;7138;49.246;9.100;2023-02-19T05:40:36;5.45;;;3.90;;
14118;SDS011;7138;49.246;9.100;2023-02-19T05:43:02;5.53;;;3.85;;
14118;SDS011;7138;49.246;9.100;2023-02-19T05:45:31;6.57;;;4.40;;
14118;SDS011;7138;49.246;9.100;2023-02-19T05:47:57;5.70;;;4.25;;
14118;SDS011;7138;49.246;9.100;2023-02-19T05:50:23;6.28;;;4.13;;
14118;SDS011;7138;49.246;9.100;2023-02-19T05:52:49;6.15;;;4.70;;
14118;SDS011;7138;49.246;9.100;2023-02-19T05:55:15;5.50;;;3.80;;
14118;SDS011;7138;49.246;9.100;2023-02-19T05:57:41;5.90;;;3.28;;
14118;SDS011;7138;49.246;9.100;2023-02-19T06:00:08;5.55;;;3.00;;
14118;SDS011;7138;49.246;9.100;2023-02-19T06:02:37;4.50;;;3.10;;
14118;SDS011;7138;49.246;9.100;2023-02-19T06:05:04;4.50;;;3.05;;
14118;SDS011;7138;49.246;9.100;2023-02-19T06:07:31;4.50;;;3.00;;
14118;SDS011;7138;49.246;9.100;2023-02-19T06:09:57;5.05;;;3.28;;
14118;SDS011;7138;49.246;9.100;2023-02-19T06:12:23;5.63;;;3.08;;
14118;SDS011;7138;49.246;9.100;2023-02-19T06:14:49;5.38;;;3.47;;
14118;SDS011;7138;49.246;9.100;2023-02-19T06:17:14;5.00;;;3.20;;
14118;SDS011;7138;49.246;9.100;2023-02-19T06:19:42;5.30;;;3.45;;
14118;SDS011;7138;49.246;9.100;2023-02-19T06:22:08;5.25;;;3.28;;
14118;SDS011;7138;49.246;9.100;2023-02-19T06:24:34;5.00;;;3.20;;
14118;SDS011;7138;49.246;9.100;2023-02-19T06:27:03;4.85;;;3.13;;
14118;SDS011;7138;49.246;9.100;2023-02-19T06:29:29;5.57;;;3.58;;
14118;SDS011;7138;49.246;9.100;2023-02-19T06:31:56;5.65;;;3.08;;
14118;SDS011;7138;49.246;9.100;2023-02-19T06:34:22;6.15;;;3.20;;
14118;SDS011;7138;49.246;9.100;2023-02-19T06:36:49;5.35;;;3.28;;
14118;SDS011;7138;49.246;9.100;2023-02-19T06:39:15;6.05;;;4.32;;
14118;SDS011;7138;49.246;9.100;2023-02-19T06:41:41;7.07;;;4.93;;
14118;SDS011;7138;49.246;9.100;2023-02-19T06:44:07;5.78;;;3.72;;
14118;SDS011;7138;49.246;9.100;2023-02-19T06:46:33;6.40;;;3.97;;
14118;SDS011;7138;49.246;9.100;2023-02-19T06:48:59;7.18;;;4.03;;
14118;SDS011;7138;49.246;9.100;2023-02-19T06:51:28;5.68;;;4.00;;
14118;SDS011;7138;49.246;9.100;2023-02-19T06:53:55;5.55;;;4.00;;
14118;SDS011;7138;49.246;9.100;2023-02-19T06:56:22;6.70;;;3.78;;
14118;SDS011;7138;49.246;9.100;2023-02-19T06:58:51;6.57;;;4.10;;
14118;SDS011;7138;49.246;9.100;2023-02-19T07:01:17;7.78;;;4.05;;
14118;SDS011;7138;49.246;9.100;2023-02-19T07:03:43;6.10;;;4.13;;
14118;SDS011;7138;49.246;9.100;2023-02-19T07:06:09;6.63;;;4.55;;
14118;SDS011;7138;49.246;9.100;2023-02-19T07:08:35;6.75;;;4.47;;
14118;SDS011;7138;49.246;9.100;2023-02-19T07:11:02;6.20;;;4.45;;
14118;SDS011;7138;49.246;9.100;2023-02-19T07:13:28;7.72;;;4.30;;
14118;SDS011;7138;49.246;9.100;2023-02-19T07:15:58;5.93;;;4.05;;
14118;SDS011;7138;49.246;9.100;2023-02-19T07:18:25;5.75;;;3.95;;
14118;SDS011;7138;49.246;9.100;2023-02-19T07:20:52;6.50;;;4.20;;
14118;SDS011;7138;49.246;9.100;2023-02-19T07:23:18;5.93;;;4.32;;
14118;SDS011;7138;49.246;9.100;2023-02-19T07:25:44;5.20;;;3.85;;
14118;SDS011;7138;49.246;9.100;2023-02-19T07:28:11;6.13;;;4.20;;
14118;SDS011;7138;49.246;9.100;2023-02-19T07:30:37;5.47;;;3.80;;
14118;SDS011;7138;49.246;9.100;2023-02-19T07:33:02;4.78;;;3.30;;
14118;SDS011;7138;49.246;9.100;2023-02-19T07:35:28;4.55;;;3.00;;
14118;SDS011;7138;49.246;9.100;2023-02-19T07:37:54;6.15;;;3.58;;
14118;SDS011;7138;49.246;9.100;2023-02-19T07:40:20;4.85;;;3.33;;
14118;SDS011;7138;49.246;9.100;2023-02-19T07:42:46;5.45;;;3.15;;
14118;SDS011;7138;49.246;9.100;2023-02-19T07:45:13;4.40;;;3.33;;
14118;SDS011;7138;49.246;9.100;2023-02-19T07:47:39;5.15;;;3.67;;
14118;SDS011;7138;49.246;9.100;2023-02-19T07:50:05;5.13;;;3.50;;
14118;SDS011;7138;49.246;9.100;2023-02-19T07:52:32;5.50;;;3.75;;
14118;SDS011;7138;49.246;9.100;2023-02-19T07:54:58;4.85;;;3.20;;
14118;SDS011;7138;49.246;9.100;2023-02-19T07:57:24;4.40;;;3.22;;
14118;SDS011;7138;49.246;9.100;2023-02-19T07:59:52;5.47;;;3.75;;
14118;SDS011;7138;49.246;9.100;2023-02-19T08:02:19;5.35;;;3.70;;
14118;SDS011;7138;49.246;9.100;2023-02-19T08:05:04;6.28;;;3.50;;
14118;SDS011;7138;49.246;9.100;2023-02-19T08:07:31;5.93;;;3.35;;
14118;SDS011;7138;49.246;9.100;2023-02-19T08:09:57;5.63;;;3.60;;
14118;SDS011;7138;49.246;9.100;2023-02-19T08:12:42;5.70;;;3.55;;
14118;SDS011;7138;49.246;9.100;2023-02-19T08:15:27;5.30;;;3.47;;
14118;SDS011;7138;49.246;9.100;2023-02-19T08:17:54;4.90;;;3.15;;
14118;SDS011;7138;49.246;9.100;2023-02-19T08:20:20;5.85;;;3.28;;
14118;SDS011;7138;49.246;9.100;2023-02-19T08:22:45;4.82;;;3.30;;
14118;SDS011;7138;49.246;9.100;2023-02-19T08:25:11;5.07;;;3.45;;
14118;SDS011;7138;49.246;9.100;2023-02-19T08:27:37;4.88;;;3.00;;
14118;SDS011;7138;49.246;9.100;2023-02-19T08:30:03;4.65;;;3.10;;
14118;SDS011;7138;49.246;9.100;2023-02-19T08:32:30;4.80;;;3.38;;
14118;SDS011;7138;49.246;9.100;2023-02-19T08:34:57;5.30;;;2.90;;
14118;SDS011;7138;49.246;9.100;2023-02-19T08:37:23;5.72;;;3.17;;
14118;SDS011;7138;49.246;9.100;2023-02-19T08:39:49;5.88;;;2.92;;
14118;SDS011;7138;49.246;9.100;2023-02-19T08:42:14;4.22;;;2.75;;
14118;SDS011;7138;49.246;9.100;2023-02-19T08:44:40;4.28;;;2.75;;
14118;SDS011;7138;49.246;9.100;2023-02-19T08:47:06;4.88;;;3.03;;
14118;SDS011;7138;49.246;9.100;2023-02-19T08:49:32;6.78;;;2.85;;
14118;SDS011;7138;49.246;9.100;2023-02-19T08:51:59;4.75;;;2.80;;
14118;SDS011;7138;49.246;9.100;2023-02-19T08:54:25;4.70;;;2.70;;
14118;SDS011;7138;49.246;9.100;2023-02-19T08:56:51;6.03;;;2.80;;
14118;SDS011;7138;49.246;9.100;2023-02-19T08:59:16;4.28;;;2.70;;
14118;SDS011;7138;49.246;9.100;2023-02-19T09:01:44;8.10;;;3.60;;
14118;SDS011;7138;49.246;9.100;2023-02-19T09:04:10;5.68;;;2.75;;
14118;SDS011;7138;49.246;9.100;2023-02-19T09:06:37;5.60;;;2.78;;
14118;SDS011;7138;49.246;9.100;2023-02-19T09:09:04;4.90;;;2.60;;
14118;SDS011;7138;49.246;9.100;2023-02-19T09:11:30;4.20;;;2.60;;
14118;SDS011;7138;49.246;9.100;2023-02-19T09:13:56;5.50;;;2.38;;
14118;SDS011;7138;49.246;9.100;2023-02-19T09:16:22;5.03;;;2.60;;
14118;SDS011;7138;49.246;9.100;2023-02-19T09:18:47;6.53;;;2.45;;
14118;SDS011;7138;49.246;9.100;2023-02-19T09:21:13;4.88;;;2.13;;
14118;SDS011;7138;49.246;9.100;2023-02-19T09:23:39;5.53;;;2.58;;
14118;SDS011;7138;49.246;9.100;2023-02-19T09:26:06;4.72;;;2.40;;
14118;SDS011;7138;49.246;9.100;2023-02-19T09:31:03;3.88;;;2.10;;
14118;SDS011;7138;49.246;9.100;2023-02-19T09:33:30;5.85;;;2.20;;
14118;SDS011;7138;49.246;9.100;2023-02-19T09:35:57;4.75;;;2.20;;
14118;SDS011;7138;49.246;9.100;2023-02-19T09:38:23;5.18;;;2.50;;
14118;SDS011;7138;49.246;9.100;2023-02-19T09:40:49;6.65;;;2.47;;
14118;SDS011;7138;49.246;9.100;2023-02-19T09:43:17;4.35;;;2.30;;
14118;SDS011;7138;49.246;9.100;2023-02-19T09:45:47;5.18;;;2.60;;
14118;SDS011;7138;49.246;9.100;2023-02-19T09:48:25;5.18;;;2.30;;
14118;SDS011;7138;49.246;9.100;2023-02-19T09:50:51;4.75;;;2.17;;
14118;SDS011;7138;49.246;9.100;2023-02-19T09:53:18;4.90;;;2.13;;
14118;SDS011;7138;49.246;9.100;2023-02-19T09:55:49;7.20;;;2.60;;
14118;SDS011;7138;49.246;9.100;2023-02-19T09:58:20;5.68;;;2.38;;
14118;SDS011;7138;49.246;9.100;2023-02-19T10:00:51;5.18;;;2.33;;
14118;SDS011;7138;49.246;9.100;2023-02-19T10:03:21;5.75;;;2.28;;
14118;SDS011;7138;49.246;9.100;2023-02-19T10:05:54;8.00;;;2.20;;
14118;SDS011;7138;49.246;9.100;2023-02-19T10:08:23;5.38;;;2.60;;
14118;SDS011;7138;49.246;9.100;2023-02-19T10:10:49;4.25;;;2.10;;
14118;SDS011;7138;49.246;9.100;2023-02-19T10:13:19;6.13;;;2.53;;
14118;SDS011;7138;49.246;9.100;2023-02-19T10:16:00;5.20;;;2.65;;
14118;SDS011;7138;49.246;9.100;2023-02-19T10:18:31;5.63;;;2.40;;
14118;SDS011;7138;49.246;9.100;2023-02-19T10:21:05;6.25;;;2.65;;
14118;SDS011;7138;49.246;9.100;2023-02-19T10:23:34;7.03;;;2.22;;
14118;SDS011;7138;49.246;9.100;2023-02-19T10:26:00;4.38;;;2.15;;
14118;SDS011;7138;49.246;9.100;2023-02-19T10:28:28;5.15;;;2.03;;
14118;SDS011;7138;49.246;9.100;2023-02-19T10:30:58;4.05;;;1.90;;
14118;SDS011;7138;49.246;9.100;2023-02-19T10:33:26;5.05;;;2.30;;
14118;SDS011;7138;49.246;9.100;2023-02-19T10:35:54;4.82;;;2.20;;
14118;SDS011;7138;49.246;9.100;2023-02-19T10:38:24;6.80;;;2.20;;
14118;SDS011;7138;49.246;9.100;2023-02-19T10:40:57;4.43;;;2.35;;
14118;SDS011;7138;49.246;9.100;2023-02-19T10:43:30;5.38;;;2.33;;
14118;SDS011;7138;49.246;9.100;2023-02-19T10:46:02;4.85;;;2.13;;
14118;SDS011;7138;49.246;9.100;2023-02-19T10:48:31;5.32;;;2.30;;
14118;SDS011;7138;49.246;9.100;2023-02-19T10:51:03;4.30;;;2.10;;
14118;SDS011;7138;49.246;9.100;2023-02-19T10:53:43;6.53;;;2.40;;
14118;SDS011;7138;49.246;9.100;2023-02-19T10:56:12;6.07;;;2.30;;
14118;SDS011;7138;49.246;9.100;2023-02-19T10:58:42;5.95;;;2.50;;
14118;SDS011;7138;49.246;9.100;2023-02-19T11:01:18;6.25;;;2.03;;
14118;SDS011;7138;49.246;9.100;2023-02-19T11:03:46;6.32;;;2.50;;
14118;SDS011;7138;49.246;9.100;2023-02-19T11:06:15;7.85;;;2.63;;
14118;SDS011;7138;49.246;9.100;2023-02-19T11:08:46;4.97;;;2.08;;
14118;SDS011;7138;49.246;9.100;2023-02-19T11:11:23;4.75;;;2.08;;
14118;SDS011;7138;49.246;9.100;2023-02-19T11:14:00;6.30;;;2.35;;
14118;SDS011;7138;49.246;9.100;2023-02-19T11:16:36;6.20;;;2.60;;
14118;SDS011;7138;49.246;9.100;2023-02-19T11:19:15;5.70;;;2.13;;
14118;SDS011;7138;49.246;9.100;2023-02-19T11:21:49;4.07;;;2.10;;
14118;SDS011;7138;49.246;9.100;2023-02-19T11:24:20;5.40;;;2.17;;
14118;SDS011;7138;49.246;9.100;2023-02-19T11:26:52;4.53;;;2.22;;
14118;SDS011;7138;49.246;9.100;2023-02-19T11:29:20;5.80;;;1.80;;
14118;SDS011;7138;49.246;9.100;2023-02-19T11:31:48;7.55;;;2.40;;
14118;SDS011;7138;49.246;9.100;2023-02-19T11:34:25;4.93;;;1.92;;
14118;SDS011;7138;49.246;9.100;2023-02-19T11:37:08;5.95;;;2.20;;
14118;SDS011;7138;49.246;9.100;2023-02-19T11:39:37;5.30;;;2.00;;
14118;SDS011;7138;49.246;9.100;2023-02-19T11:45:13;6.85;;;2.33;;
14118;SDS011;7138;49.246;9.100;2023-02-19T11:48:03;5.00;;;2.58;;
14118;SDS011;7138;49.246;9.100;2023-02-19T11:50:51;6.25;;;2.28;;
14118;SDS011;7138;49.246;9.100;2023-02-19T11:56:01;3.50;;;1.52;;
14118;SDS011;7138;49.246;9.100;2023-02-19T11:58:46;6.15;;;2.50;;
14118;SDS011;7138;49.246;9.100;2023-02-19T12:01:29;3.92;;;1.70;;
14118;SDS011;7138;49.246;9.100;2023-02-19T12:07:40;4.22;;;1.42;;
14118;SDS011;7138;49.246;9.100;2023-02-19T12:10:55;4.00;;;1.58;;
14118;SDS011;7138;49.246;9.100;2023-02-19T12:14:07;5.03;;;1.70;;
14118;SDS011;7138;49.246;9.100;2023-02-19T12:17:11;3.47;;;1.55;;
14118;SDS011;7138;49.246;9.100;2023-02-19T12:19:56;4.88;;;1.58;;
14118;SDS011;7138;49.246;9.100;2023-02-19T12:22:35;4.05;;;1.60;;
14118;SDS011;7138;49.246;9.100;2023-02-19T12:25:22;5.70;;;1.60;;
14118;SDS011;7138;49.246;9.100;2023-02-19T12:28:09;5.20;;;1.88;;
14118;SDS011;7138;49.246;9.100;2023-02-19T12:31:06;4.95;;;2.00;;
14118;SDS011;7138;49.246;9.100;2023-02-19T12:34:22;5.53;;;1.98;;
14118;SDS011;7138;49.246;9.100;2023-02-19T12:37:20;9.57;;;2.97;;
14118;SDS011;7138;49.246;9.100;2023-02-19T12:40:09;3.33;;;1.50;;
14118;SDS011;7138;49.246;9.100;2023-02-19T12:43:00;3.53;;;1.52;;
14118;SDS011;7138;49.246;9.100;2023-02-19T12:45:39;6.28;;;1.48;;
14118;SDS011;7138;49.246;9.100;2023-02-19T12:48:13;3.70;;;1.52;;
14118;SDS011;7138;49.246;9.100;2023-02-19T12:50:53;4.97;;;1.70;;
14118;SDS011;7138;49.246;9.100;2023-02-19T12:53:30;4.15;;;1.70;;
14118;SDS011;7138;49.246;9.100;2023-02-19T12:56:07;5.20;;;1.52;;
14118;SDS011;7138;49.246;9.100;2023-02-19T12:58:42;5.72;;;2.00;;
14118;SDS011;7138;49.246;9.100;2023-02-19T13:01:14;4.22;;;1.90;;
14118;SDS011;7138;49.246;9.100;2023-02-19T13:03:49;7.32;;;2.20;;
14118;SDS011;7138;49.246;9.100;2023-02-19T13:06:32;6.60;;;1.80;;
14118;SDS011;7138;49.246;9.100;2023-02-19T13:09:06;5.22;;;1.90;;
14118;SDS011;7138;49.246;9.100;2023-02-19T13:11:44;4.00;;;1.90;;
14118;SDS011;7138;49.246;9.100;2023-02-19T13:14:19;5.03;;;1.70;;
14118;SDS011;7138;49.246;9.100;2023-02-19T13:16:54;5.95;;;1.75;;
14118;SDS011;7138;49.246;9.100;2023-02-19T13:19:25;5.05;;;1.70;;
14118;SDS011;7138;49.246;9.100;2023-02-19T13:21:54;5.75;;;2.05;;
14118;SDS011;7138;49.246;9.100;2023-02-19T13:24:48;6.20;;;2.05;;
14118;SDS011;7138;49.246;9.100;2023-02-19T13:27:23;5.95;;;1.90;;
14118;SDS011;7138;49.246;9.100;2023-02-19T13:30:22;4.90;;;1.90;;
14118;SDS011;7138;49.246;9.100;2023-02-19T13:33:02;4.68;;;1.60;;
14118;SDS011;7138;49.246;9.100;2023-02-19T13:38:49;5.53;;;1.70;;
14118;SDS011;7138;49.246;9.100;2023-02-19T13:41:16;5.28;;;1.20;;
14118;SDS011;7138;49.246;9.100;2023-02-19T13:43:53;5.22;;;2.22;;
14118;SDS011;7138;49.246;9.100;2023-02-19T13:46:25;3.88;;;1.50;;
14118;SDS011;7138;49.246;9.100;2023-02-19T14:05:00;6.57;;;1.92;;
14118;SDS011;7138;49.246;9.100;2023-02-19T14:07:35;6.10;;;1.63;;
14118;SDS011;7138;49.246;9.100;2023-02-19T14:16:30;4.93;;;1.70;;
14118;SDS011;7138;49.246;9.100;2023-02-19T14:19:15;6.03;;;1.90;;
14118;SDS011;7138;49.246;9.100;2023-02-19T14:25:34;5.05;;;1.85;;
14118;SDS011;7138;49.246;9.100;2023-02-19T14:28:29;4.55;;;1.77;;
14118;SDS011;7138;49.246;9.100;2023-02-19T14:31:02;6.53;;;1.80;;
14118;SDS011;7138;49.246;9.100;2023-02-19T14:33:43;5.47;;;2.25;;
14118;SDS011;7138;49.246;9.100;2023-02-19T14:36:15;4.45;;;1.70;;
14118;SDS011;7138;49.246;9.100;2023-02-19T14:38:52;8.68;;;1.70;;
14118;SDS011;7138;49.246;9.100;2023-02-19T14:41:22;7.88;;;2.30;;
14118;SDS011;7138;49.246;9.100;2023-02-19T14:43:51;5.70;;;1.80;;
14118;SDS011;7138;49.246;9.100;2023-02-19T14:46:23;7.85;;;1.83;;
14118;SDS011;7138;49.246;9.100;2023-02-19T14:48:56;6.43;;;1.95;;
14118;SDS011;7138;49.246;9.100;2023-02-19T14:51:32;5.90;;;1.50;;
14118;SDS011;7138;49.246;9.100;2023-02-19T14:54:09;6.97;;;2.33;;
14118;SDS011;7138;49.246;9.100;2023-02-19T14:56:41;6.50;;;1.77;;
14118;SDS011;7138;49.246;9.100;2023-02-19T14:59:24;5.03;;;1.80;;
14118;SDS011;7138;49.246;9.100;2023-02-19T15:01:52;6.65;;;2.00;;
14118;SDS011;7138;49.246;9.100;2023-02-19T15:04:24;4.72;;;1.60;;
14118;SDS011;7138;49.246;9.100;2023-02-19T15:06:53;4.55;;;1.58;;
14118;SDS011;7138;49.246;9.100;2023-02-19T15:09:28;5.78;;;1.73;;
14118;SDS011;7138;49.246;9.100;2023-02-19T15:11:57;5.03;;;1.55;;
14118;SDS011;7138;49.246;9.100;2023-02-19T15:14:28;9.20;;;2.55;;
14118;SDS011;7138;49.246;9.100;2023-02-19T15:16:57;5.95;;;1.83;;
14118;SDS011;7138;49.246;9.100;2023-02-19T15:19:26;4.88;;;1.63;;
14118;SDS011;7138;49.246;9.100;2023-02-19T15:21:56;6.03;;;1.73;;
14118;SDS011;7138;49.246;9.100;2023-02-19T15:24:23;4.05;;;1.60;;
14118;SDS011;7138;49.246;9.100;2023-02-19T15:26:49;6.30;;;1.50;;
14118;SDS011;7138;49.246;9.100;2023-02-19T15:29:19;4.82;;;1.90;;
14118;SDS011;7138;49.246;9.100;2023-02-19T15:31:49;4.70;;;1.45;;
14118;SDS011;7138;49.246;9.100;2023-02-19T15:34:18;6.50;;;1.92;;
14118;SDS011;7138;49.246;9.100;2023-02-19T15:36:46;8.80;;;1.70;;
14118;SDS011;7138;49.246;9.100;2023-02-19T15:39:18;3.78;;;1.38;;
14118;SDS011;7138;49.246;9.100;2023-02-19T15:41:52;5.25;;;1.75;;
14118;SDS011;7138;49.246;9.100;2023-02-19T15:44:28;6.93;;;1.58;;
14118;SDS011;7138;49.246;9.100;2023-02-19T15:47:09;5.97;;;1.38;;
14118;SDS011;7138;49.246;9.100;2023-02-19T15:49:48;3.58;;;1.27;;
14118;SDS011;7138;49.246;9.100;2023-02-19T15:52:22;6.03;;;1.60;;
14118;SDS011;7138;49.246;9.100;2023-02-19T15:54:59;7.18;;;1.70;;
14118;SDS011;7138;49.246;9.100;2023-02-19T15:57:40;8.20;;;1.60;;
14118;SDS011;7138;49.246;9.100;2023-02-19T16:00:13;5.20;;;1.60;;
14118;SDS011;7138;49.246;9.100;2023-02-19T16:02:46;8.63;;;1.80;;
14118;SDS011;7138;49.246;9.100;2023-02-19T16:05:13;4.85;;;1.40;;
14118;SDS011;7138;49.246;9.100;2023-02-19T16:07:46;6.05;;;1.55;;
14118;SDS011;7138;49.246;9.100;2023-02-19T16:10:50;3.58;;;1.40;;
14118;SDS011;7138;49.246;9.100;2023-02-19T16:13:22;5.60;;;1.73;;
14118;SDS011;7138;49.246;9.100;2023-02-19T16:18:24;6.97;;;1.52;;
14118;SDS011;7138;49.246;9.100;2023-02-19T16:20:50;4.85;;;1.67;;
14118;SDS011;7138;49.246;9.100;2023-02-19T16:23:16;4.60;;;1.73;;
14118;SDS011;7138;49.246;9.100;2023-02-19T16:25:48;4.38;;;1.50;;